Time;durP1;ratioP1;P1;durP2;ratioP2;P2;SDS_P1;SDS_P2;PMS_P1;PMS_P2;Temp;Humidity;BMP_temperature;BMP_pressure;BME280_temperature;BME280_humidity;BME280_pressure;Samples;Min_cycle;Max_cycle;Signal;HPM_P1;HPM_P2
2021/05/29 00:00:52;;;;;;;3.25;0.60;;;22.10;50.90;;;;;;6344352;28;20103;-65
2021/05/29 00:03:59;;;;;;;0.98;0.45;;;22.10;50.90;;;;;;6344613;28;20028;-65
2021/05/29 00:07:03;;;;;;;0.85;0.55;;;22.10;50.90;;;;;;6321918;28;20026;-65
2021/05/29 00:10:09;;;;;;;0.55;0.50;;;22.10;50.90;;;;;;6319075;28;20021;-65
2021/05/29 00:13:13;;;;;;;2.00;0.70;;;22.10;50.90;;;;;;6317548;28;20051;-65
2021/05/29 00:16:17;;;;;;;0.88;0.57;;;22.10;50.90;;;;;;6306973;28;20032;-65
2021/05/29 00:19:19;;;;;;;0.65;0.52;;;22.10;51.00;;;;;;6292362;28;20046;-65
2021/05/29 00:22:40;;;;;;;0.85;0.40;;;22.10;50.90;;;;;;6314052;28;20103;-65
2021/05/29 00:25:48;;;;;;;0.57;0.50;;;22.10;50.90;;;;;;6317754;28;20027;-65
2021/05/29 00:28:50;;;;;;;0.60;0.50;;;22.10;50.90;;;;;;6317644;28;20035;-65
2021/05/29 00:31:57;;;;;;;0.55;0.50;;;22.10;50.80;;;;;;6318597;28;20477;-64
2021/05/29 00:35:02;;;;;;;0.65;0.57;;;22.10;50.90;;;;;;6318538;28;20024;-65
2021/05/29 00:38:07;;;;;;;1.23;0.45;;;22.10;50.90;;;;;;6318350;28;20027;-65
2021/05/29 00:41:10;;;;;;;0.57;0.50;;;22.10;50.90;;;;;;6317972;28;20020;-65
2021/05/29 00:44:16;;;;;;;0.60;0.60;;;22.10;50.90;;;;;;6318255;28;20028;-65
2021/05/29 00:47:21;;;;;;;1.15;0.50;;;22.10;50.90;;;;;;6318484;28;20059;-65
2021/05/29 00:50:22;;;;;;;0.40;0.40;;;22.10;50.90;;;;;;6317664;28;20032;-67
2021/05/29 00:53:24;;;;;;;0.73;0.60;;;22.10;50.90;;;;;;6302915;28;20101;-66
2021/05/29 00:56:25;;;;;;;0.43;0.40;;;22.10;50.90;;;;;;6306181;28;20049;-64
2021/05/29 00:59:26;;;;;;;0.80;0.50;;;22.10;50.90;;;;;;6339673;28;20030;-65
2021/05/29 01:02:27;;;;;;;0.57;0.50;;;22.10;50.80;;;;;;6340925;28;20029;-65
2021/05/29 01:05:28;;;;;;;1.45;0.50;;;22.10;50.80;;;;;;6339833;28;20281;-65
2021/05/29 01:08:29;;;;;;;0.60;0.40;;;22.10;50.90;;;;;;6339912;28;20027;-65
2021/05/29 01:11:31;;;;;;;0.77;0.50;;;22.10;50.80;;;;;;6341256;28;20020;-65
2021/05/29 01:14:33;;;;;;;0.60;0.50;;;22.10;50.90;;;;;;6339971;28;20486;-65
2021/05/29 01:17:34;;;;;;;0.50;0.40;;;22.00;50.70;;;;;;6339822;28;20678;-65
2021/05/29 01:20:36;;;;;;;0.75;0.50;;;22.10;50.80;;;;;;6340957;28;20522;-66
2021/05/29 01:23:39;;;;;;;0.30;0.30;;;22.10;50.80;;;;;;6339446;28;20027;-65
2021/05/29 01:26:40;;;;;;;1.38;0.88;;;22.10;50.80;;;;;;6340608;28;20046;-65
2021/05/29 01:29:42;;;;;;;0.32;0.32;;;22.10;50.80;;;;;;6315549;28;20032;-66
2021/05/29 01:32:42;;;;;;;0.50;0.40;;;22.10;50.80;;;;;;6328104;28;20031;-65
2021/05/29 01:35:44;;;;;;;2.58;0.25;;;22.10;50.80;;;;;;6340862;28;20028;-65
2021/05/29 01:38:45;;;;;;;0.57;0.40;;;22.10;50.80;;;;;;6339379;28;20031;-65
2021/05/29 01:41:46;;;;;;;0.32;0.30;;;22.10;50.80;;;;;;6318412;28;20051;-66
2021/05/29 01:44:48;;;;;;;0.77;0.50;;;22.10;50.80;;;;;;6339391;28;20023;-65
2021/05/29 01:47:49;;;;;;;3.22;0.40;;;22.10;50.80;;;;;;6340558;28;20050;-65
2021/05/29 01:50:49;;;;;;;0.65;0.43;;;22.10;50.80;;;;;;6315743;28;20040;-65
2021/05/29 01:53:52;;;;;;;0.50;0.40;;;22.00;50.70;;;;;;6302153;28;20032;-65
2021/05/29 01:56:54;;;;;;;0.43;0.30;;;22.10;50.90;;;;;;6293941;28;20025;-65
2021/05/29 01:59:56;;;;;;;1.17;0.73;;;22.10;50.80;;;;;;6340463;28;20016;-65
2021/05/29 02:02:57;;;;;;;0.60;0.50;;;22.10;50.80;;;;;;6339990;28;20473;-65
2021/05/29 02:05:59;;;;;;;0.47;0.40;;;22.10;50.80;;;;;;6339195;28;20028;-65
2021/05/29 02:09:00;;;;;;;0.82;0.40;;;22.00;50.70;;;;;;6338334;28;20023;-65
2021/05/29 02:12:03;;;;;;;0.50;0.50;;;22.00;50.70;;;;;;6342066;28;20115;-65
2021/05/29 02:15:05;;;;;;;0.43;0.40;;;22.00;50.70;;;;;;6344903;28;20055;-65
2021/05/29 02:18:10;;;;;;;0.32;0.32;;;22.00;50.70;;;;;;6344622;28;20132;-65
2021/05/29 02:21:13;;;;;;;0.60;0.50;;;22.00;50.70;;;;;;6343124;28;20086;-66
2021/05/29 02:24:13;;;;;;;0.30;0.30;;;22.10;50.90;;;;;;6344563;28;20070;-65
2021/05/29 02:27:14;;;;;;;0.40;0.40;;;22.00;50.70;;;;;;6344718;28;20520;-66
2021/05/29 02:30:15;;;;;;;0.32;0.32;;;22.00;50.70;;;;;;6344331;28;20034;-66
2021/05/29 02:33:17;;;;;;;0.40;0.40;;;22.00;50.70;;;;;;6344247;28;20065;-65
2021/05/29 02:36:18;;;;;;;0.60;0.38;;;22.00;50.70;;;;;;6344650;28;20467;-65
2021/05/29 02:39:18;;;;;;;0.30;0.30;;;22.00;50.70;;;;;;6341149;28;20024;-65
2021/05/29 02:42:19;;;;;;;0.43;0.40;;;22.00;50.70;;;;;;6317728;28;20028;-65
2021/05/29 02:45:20;;;;;;;0.47;0.47;;;22.00;50.70;;;;;;6341523;28;20031;-65
2021/05/29 02:48:21;;;;;;;1.25;0.50;;;22.10;50.80;;;;;;6343941;28;20036;-65
2021/05/29 02:51:21;;;;;;;0.45;0.40;;;22.10;50.80;;;;;;6342660;28;20590;-65
2021/05/29 02:54:23;;;;;;;0.30;0.30;;;22.10;50.80;;;;;;6332110;28;20039;-65
2021/05/29 02:57:23;;;;;;;0.40;0.40;;;22.00;50.70;;;;;;6342704;28;20022;-65
2021/05/29 03:00:36;;;;;;;0.30;0.30;;;22.00;50.70;;;;;;6343406;28;20008;-65
2021/05/29 03:03:37;;;;;;;0.30;0.30;;;22.00;50.70;;;;;;6343779;28;20396;-66
2021/05/29 03:06:38;;;;;;;0.63;0.47;;;22.00;50.70;;;;;;6343485;28;20035;-66
2021/05/29 03:09:38;;;;;;;0.52;0.40;;;22.00;50.70;;;;;;6342268;28;20023;-65
2021/05/29 03:12:40;;;;;;;0.45;0.43;;;22.00;50.70;;;;;;6342367;28;20524;-66
2021/05/29 03:15:42;;;;;;;0.45;0.40;;;22.10;50.80;;;;;;6341928;28;20400;-65
2021/05/29 03:18:47;;;;;;;0.77;0.50;;;22.00;50.70;;;;;;6342013;28;20418;-66
2021/05/29 03:21:48;;;;;;;0.95;0.30;;;22.00;50.70;;;;;;6317432;28;20035;-65
2021/05/29 03:24:49;;;;;;;0.88;0.57;;;22.00;50.70;;;;;;6328053;28;20024;-66
2021/05/29 03:27:53;;;;;;;0.30;0.30;;;22.00;50.70;;;;;;6343347;28;20425;-65
2021/05/29 03:30:54;;;;;;;0.70;0.40;;;22.00;50.70;;;;;;6341621;28;20110;-65
2021/05/29 03:33:55;;;;;;;0.60;0.50;;;22.00;50.70;;;;;;6341616;28;20032;-65
2021/05/29 03:36:55;;;;;;;0.50;0.40;;;22.10;50.80;;;;;;6343199;28;20342;-65
2021/05/29 03:39:56;;;;;;;0.63;0.47;;;22.00;50.70;;;;;;6335015;28;20020;-66
2021/05/29 03:42:56;;;;;;;0.75;0.43;;;22.00;50.70;;;;;;6317718;28;20099;-65
2021/05/29 03:45:57;;;;;;;0.40;0.40;;;22.00;50.70;;;;;;6334228;28;20442;-65
2021/05/29 03:48:58;;;;;;;0.70;0.50;;;22.00;50.70;;;;;;6342722;28;20099;-66
2021/05/29 03:51:59;;;;;;;0.40;0.30;;;22.00;50.70;;;;;;6342245;28;20120;-66
2021/05/29 03:54:59;;;;;;;0.65;0.40;;;22.00;50.70;;;;;;6342394;28;20043;-65
2021/05/29 03:58:01;;;;;;;0.43;0.40;;;22.00;50.70;;;;;;6342612;28;20055;-65
2021/05/29 04:01:02;;;;;;;0.40;0.40;;;22.10;50.80;;;;;;6342089;28;20028;-65
2021/05/29 04:04:03;;;;;;;0.80;0.52;;;22.00;50.70;;;;;;6342585;28;20028;-66
2021/05/29 04:07:04;;;;;;;0.30;0.30;;;22.00;50.70;;;;;;6342110;28;20102;-66
2021/05/29 04:10:09;;;;;;;0.68;0.50;;;22.00;50.70;;;;;;6341737;28;20035;-65
2021/05/29 04:13:10;;;;;;;2.20;0.50;;;22.00;50.70;;;;;;6340963;28;20027;-65
2021/05/29 04:16:10;;;;;;;1.15;0.52;;;22.00;50.70;;;;;;6342178;28;20084;-65
2021/05/29 04:19:11;;;;;;;0.98;0.50;;;22.00;50.70;;;;;;6342587;28;20672;-66
2021/05/29 04:22:11;;;;;;;0.50;0.40;;;22.00;50.70;;;;;;6340433;28;20031;-65
2021/05/29 04:25:15;;;;;;;0.88;0.50;;;22.00;50.70;;;;;;6340756;28;20031;-66
2021/05/29 04:28:16;;;;;;;0.60;0.55;;;22.00;50.70;;;;;;6340954;28;20604;-65
2021/05/29 04:31:18;;;;;;;1.30;0.50;;;22.00;50.70;;;;;;6340464;28;20028;-66
2021/05/29 04:34:18;;;;;;;1.02;0.52;;;22.00;50.70;;;;;;6340292;28;20028;-66
2021/05/29 04:37:19;;;;;;;0.40;0.30;;;22.00;50.70;;;;;;6341650;28;20031;-66
2021/05/29 04:40:22;;;;;;;0.40;0.40;;;22.10;50.70;;;;;;6340365;28;20027;-66
2021/05/29 04:43:23;;;;;;;0.43;0.40;;;22.00;50.70;;;;;;6340443;28;20484;-66
2021/05/29 04:46:24;;;;;;;0.90;0.43;;;22.00;50.70;;;;;;6341373;28;20031;-65
2021/05/29 04:49:25;;;;;;;0.30;0.30;;;22.10;50.70;;;;;;6341305;28;20031;-65
2021/05/29 04:52:26;;;;;;;0.32;0.32;;;22.00;50.70;;;;;;6341136;28;20101;-66
2021/05/29 04:55:27;;;;;;;0.55;0.40;;;22.00;50.70;;;;;;6341983;28;20127;-66
2021/05/29 04:58:29;;;;;;;0.32;0.32;;;22.00;50.70;;;;;;6341303;28;20539;-65
2021/05/29 05:01:31;;;;;;;0.40;0.40;;;22.00;50.70;;;;;;6340896;28;20028;-65
2021/05/29 05:04:31;;;;;;;0.47;0.30;;;22.00;50.70;;;;;;6340028;28;20036;-66
2021/05/29 05:07:33;;;;;;;1.52;0.50;;;22.00;50.70;;;;;;6339784;28;20046;-66
2021/05/29 05:10:33;;;;;;;0.60;0.50;;;22.00;50.60;;;;;;6341128;28;20329;-65
2021/05/29 05:13:34;;;;;;;0.52;0.50;;;22.00;50.70;;;;;;6339663;28;20028;-65
2021/05/29 05:16:35;;;;;;;0.68;0.30;;;22.00;50.70;;;;;;6339292;28;20096;-65
2021/05/29 05:19:35;;;;;;;0.98;0.52;;;22.00;50.70;;;;;;6339862;28;20115;-66
2021/05/29 05:22:36;;;;;;;0.63;0.50;;;22.00;50.70;;;;;;6341209;28;20027;-67
2021/05/29 05:25:37;;;;;;;4.75;0.50;;;22.00;50.70;;;;;;6305766;28;20060;-68
2021/05/29 05:28:37;;;;;;;0.60;0.50;;;22.00;50.80;;;;;;6333810;28;20445;-68
2021/05/29 05:31:39;;;;;;;0.52;0.50;;;22.00;50.70;;;;;;6325276;28;20031;-67
2021/05/29 05:34:40;;;;;;;3.42;1.55;;;22.00;50.80;;;;;;6308928;28;20062;-68
2021/05/29 05:37:41;;;;;;;1.25;1.10;;;21.90;50.10;;;;;;6333073;28;20024;-67
2021/05/29 05:40:42;;;;;;;3.70;2.28;;;21.90;50.10;;;;;;6316846;28;20023;-68
2021/05/29 05:43:44;;;;;;;2.70;1.17;;;21.90;49.60;;;;;;6319761;28;20063;-68
2021/05/29 05:46:45;;;;;;;3.83;2.03;;;21.80;50.20;;;;;;6321804;28;20775;-66
2021/05/29 05:49:47;;;;;;;4.97;2.80;;;21.80;49.20;;;;;;6307745;28;20028;-67
2021/05/29 05:52:47;;;;;;;3.22;2.53;;;21.90;48.30;;;;;;6331731;28;20127;-66
2021/05/29 05:55:55;;;;;;;5.05;2.45;;;21.90;48.60;;;;;;6319264;28;20077;-67
2021/05/29 05:58:57;;;;;;;2.92;1.90;;;21.90;48.70;;;;;;6327701;28;20020;-66
2021/05/29 06:01:58;;;;;;;3.05;1.83;;;21.90;48.90;;;;;;6316431;28;20508;-67
2021/05/29 06:04:59;;;;;;;3.08;1.60;;;21.90;49.10;;;;;;6307712;28;20024;-66
2021/05/29 06:07:59;;;;;;;3.65;1.70;;;21.90;49.40;;;;;;6319069;28;20652;-66
2021/05/29 06:11:00;;;;;;;3.88;1.70;;;21.90;49.50;;;;;;6327455;28;20059;-66
2021/05/29 06:20:20;;;;;;;2.55;1.45;;;21.90;49.70;;;;;;6324011;28;20516;-66
2021/05/29 06:23:21;;;;;;;3.50;1.63;;;21.90;49.80;;;;;;6326960;28;20081;-66
2021/05/29 06:26:22;;;;;;;3.30;1.60;;;21.90;49.80;;;;;;6336007;27;20745;-65
2021/05/29 06:29:23;;;;;;;2.38;1.40;;;21.90;49.80;;;;;;6342334;28;20034;-66
2021/05/29 06:32:24;;;;;;;2.15;1.55;;;21.90;49.90;;;;;;6327144;28;20038;-66
2021/05/29 06:35:24;;;;;;;2.33;1.30;;;21.90;49.90;;;;;;6329259;28;20016;-66
2021/05/29 06:38:25;;;;;;;3.53;1.70;;;21.90;49.90;;;;;;6325683;28;20020;-66
2021/05/29 06:41:26;;;;;;;2.38;1.50;;;21.90;49.80;;;;;;6321436;28;20656;-66
2021/05/29 06:44:27;;;;;;;2.72;1.38;;;22.00;50.00;;;;;;6329935;28;20027;-65
2021/05/29 06:47:27;;;;;;;1.85;1.45;;;21.90;49.90;;;;;;6330915;28;20606;-66
2021/05/29 06:50:29;;;;;;;2.17;1.42;;;22.00;50.00;;;;;;6341203;28;20365;-66
2021/05/29 06:53:38;;;;;;;2.65;1.42;;;21.90;50.00;;;;;;6324383;28;20451;-65
2021/05/29 06:59:58;;;;;;;1.60;1.42;;;21.90;50.00;;;;;;6332433;28;20023;-66
2021/05/29 07:02:58;;;;;;;3.55;1.35;;;22.00;50.20;;;;;;6323651;28;20039;-65
2021/05/29 07:05:59;;;;;;;1.90;1.17;;;21.90;50.20;;;;;;6340579;28;20576;-65
2021/05/29 07:09:00;;;;;;;3.22;1.33;;;21.90;50.30;;;;;;6312919;28;20030;-65
2021/05/29 07:12:00;;;;;;;1.15;1.05;;;21.90;50.30;;;;;;6322608;28;20090;-65
2021/05/29 07:15:02;;;;;;;5.32;1.50;;;21.90;50.30;;;;;;6342255;28;20022;-66
2021/05/29 07:18:08;;;;;;;1.40;1.20;;;21.90;50.30;;;;;;6331263;28;20107;-66
2021/05/29 07:21:10;;;;;;;2.17;1.60;;;21.90;50.20;;;;;;6338595;28;20461;-66
2021/05/29 07:24:11;;;;;;;1.80;1.20;;;21.90;50.20;;;;;;6322661;28;20032;-66
2021/05/29 07:27:12;;;;;;;2.95;1.50;;;21.90;50.20;;;;;;6331844;28;20369;-66
2021/05/29 07:30:13;;;;;;;1.40;0.98;;;22.00;50.30;;;;;;6328823;28;20035;-66
2021/05/29 07:33:14;;;;;;;3.97;1.30;;;22.00;50.40;;;;;;6331227;28;20534;-66
2021/05/29 07:36:14;;;;;;;1.70;1.40;;;22.00;50.40;;;;;;6330916;28;20027;-66
2021/05/29 07:39:16;;;;;;;6.97;1.20;;;21.90;50.30;;;;;;6316734;28;20076;-66
2021/05/29 07:42:17;;;;;;;2.85;1.05;;;21.90;50.30;;;;;;6334653;28;20104;-66
2021/05/29 07:45:17;;;;;;;8.93;1.70;;;21.90;50.40;;;;;;6328488;28;20036;-66
2021/05/29 07:48:18;;;;;;;7.95;1.50;;;21.90;50.40;;;;;;6328836;28;20081;-65
2021/05/29 07:51:19;;;;;;;5.32;1.27;;;21.90;50.50;;;;;;6329919;28;20048;-66
2021/05/29 07:54:20;;;;;;;4.28;1.40;;;21.90;50.40;;;;;;6317463;28;20027;-65
2021/05/29 07:57:20;;;;;;;6.25;1.40;;;21.90;50.50;;;;;;6340738;28;20030;-66
2021/05/29 08:00:25;;;;;;;1.75;1.02;;;21.90;50.40;;;;;;6325692;28;20045;-66
2021/05/29 08:03:28;;;;;;;7.60;1.92;;;21.90;50.50;;;;;;6314789;28;20492;-66
2021/05/29 08:06:30;;;;;;;7.55;1.17;;;22.00;50.50;;;;;;6332827;28;20447;-66
2021/05/29 08:09:30;;;;;;;7.07;1.30;;;21.90;50.50;;;;;;6326252;28;20131;-66
2021/05/29 08:12:31;;;;;;;1.75;1.10;;;22.00;50.60;;;;;;6339891;28;20024;-66
2021/05/29 08:15:32;;;;;;;7.13;1.30;;;21.90;50.50;;;;;;6322832;28;20034;-66
2021/05/29 08:18:32;;;;;;;3.08;1.58;;;21.90;50.50;;;;;;6340138;28;20027;-66
2021/05/29 08:21:34;;;;;;;6.78;1.50;;;22.00;50.60;;;;;;6339646;28;20032;-66
2021/05/29 08:24:35;;;;;;;7.10;1.95;;;22.00;50.70;;;;;;6326105;28;20145;-65
2021/05/29 08:27:35;;;;;;;7.82;2.72;;;22.00;50.60;;;;;;6329716;28;20110;-66
2021/05/29 08:30:36;;;;;;;9.95;4.10;;;22.00;50.60;;;;;;6324407;28;20024;-66
2021/05/29 08:33:39;;;;;;;5.82;3.40;;;22.00;50.60;;;;;;6324015;28;20028;-65
2021/05/29 08:36:41;;;;;;;17.50;6.63;;;22.00;50.60;;;;;;6331467;28;20381;-65
2021/05/29 08:39:41;;;;;;;21.15;7.60;;;22.00;51.30;;;;;;6329157;28;20062;-66
2021/05/29 08:42:43;;;;;;;18.55;7.93;;;22.00;50.60;;;;;;6301894;28;20485;-64
2021/05/29 08:45:44;;;;;;;28.08;10.70;;;22.00;50.60;;;;;;6312118;28;20596;-65
2021/05/29 08:48:47;;;;;;;27.17;11.35;;;22.00;50.60;;;;;;6316389;28;20016;-65
2021/05/29 08:51:48;;;;;;;21.85;10.45;;;22.00;50.60;;;;;;6321154;28;20048;-65
2021/05/29 08:54:49;;;;;;;28.05;11.73;;;22.00;50.70;;;;;;6317800;28;20120;-64
2021/05/29 08:57:55;;;;;;;34.35;12.98;;;22.00;50.60;;;;;;6318475;28;20091;-65
2021/05/29 09:00:59;;;;;;;24.33;11.30;;;22.00;50.60;;;;;;6330668;28;20025;-65
2021/05/29 09:04:08;;;;;;;30.13;11.98;;;22.00;50.70;;;;;;6314682;28;20440;-65
2021/05/29 09:07:24;;;;;;;31.65;10.80;;;22.00;50.70;;;;;;6316363;28;20024;-65
2021/05/29 09:10:28;;;;;;;29.83;11.30;;;22.00;50.70;;;;;;6327593;28;20023;-65
2021/05/29 09:13:33;;;;;;;36.22;14.48;;;22.00;50.70;;;;;;6318104;28;20024;-65
2021/05/29 09:16:35;;;;;;;27.02;11.80;;;22.00;50.70;;;;;;6316993;28;20099;-65
2021/05/29 09:20:05;;;;;;;35.28;13.02;;;22.00;50.70;;;;;;6315565;28;20027;-65
2021/05/29 09:23:08;;;;;;;30.73;13.02;;;22.00;50.70;;;;;;6319977;28;20077;-65
2021/05/29 09:26:11;;;;;;;28.27;12.48;;;22.00;50.70;;;;;;6324552;28;20695;-64
2021/05/29 09:29:32;;;;;;;29.08;11.50;;;22.00;50.70;;;;;;6325238;28;20107;-65
2021/05/29 09:32:38;;;;;;;26.67;12.32;;;22.00;50.80;;;;;;6320740;28;20051;-65
2021/05/29 09:35:39;;;;;;;24.27;11.15;;;22.00;50.70;;;;;;6320295;28;20095;-64
2021/05/29 09:38:46;;;;;;;28.75;10.90;;;22.00;50.70;;;;;;6329104;28;20055;-65
2021/05/29 09:41:52;;;;;;;26.20;11.18;;;22.00;50.70;;;;;;6325017;28;20065;-64
2021/05/29 09:44:54;;;;;;;25.73;11.05;;;22.00;50.70;;;;;;6323478;28;20028;-65
2021/05/29 09:48:20;;;;;;;27.48;11.75;;;22.00;50.70;;;;;;6344424;28;20030;-65
2021/05/29 09:51:21;;;;;;;27.05;10.45;;;22.00;50.80;;;;;;6321320;28;20117;-64
2021/05/29 09:54:25;;;;;;;28.52;10.50;;;22.00;50.80;;;;;;6333146;28;20378;-66
2021/05/29 09:57:26;;;;;;;26.38;10.55;;;22.00;50.80;;;;;;6330346;28;20060;-64
2021/05/29 10:00:41;;;;;;;21.63;10.55;;;22.00;50.80;;;;;;6336601;28;20095;-64
2021/05/29 10:03:49;;;;;;;26.58;9.95;;;22.00;50.80;;;;;;6328964;28;20070;-65
2021/05/29 10:07:02;;;;;;;20.98;10.93;;;22.00;50.80;;;;;;6334099;28;20060;-64
2021/05/29 10:10:03;;;;;;;24.45;10.30;;;22.00;50.80;;;;;;6340105;28;20032;-65
2021/05/29 10:13:04;;;;;;;26.25;9.68;;;22.00;50.80;;;;;;6327771;28;20019;-64
2021/05/29 10:16:05;;;;;;;21.88;10.38;;;22.00;50.80;;;;;;6336650;28;20069;-65
2021/05/29 10:19:09;;;;;;;33.55;9.98;;;22.00;50.80;;;;;;6330948;28;20020;-66
2021/05/29 10:22:13;;;;;;;25.20;8.95;;;22.00;50.90;;;;;;6344465;28;20163;-67
2021/05/29 10:25:17;;;;;;;25.27;9.38;;;22.00;50.90;;;;;;6345096;28;20038;-64
2021/05/29 10:28:19;;;;;;;20.63;8.80;;;22.10;50.90;;;;;;6332762;28;20470;-65
2021/05/29 10:31:20;;;;;;;38.55;9.50;;;22.00;50.80;;;;;;6318893;28;20089;-68
2021/05/29 10:34:49;;;;;;;26.60;9.88;;;22.10;51.00;;;;;;6325231;28;20028;-67
2021/05/29 10:37:53;;;;;;;42.85;10.30;;;22.10;51.00;;;;;;6318725;28;20074;-67
2021/05/29 10:40:54;;;;;;;22.75;9.45;;;22.10;51.00;;;;;;6325365;28;20488;-68
2021/05/29 10:44:33;;;;;;;22.23;8.68;;;22.10;50.60;;;;;;6307280;28;20051;-68
2021/05/29 10:47:37;;;;;;;24.10;9.05;;;22.10;50.90;;;;;;6318334;28;20131;-68
2021/05/29 10:53:57;;;;;;;24.02;8.70;;;22.10;50.90;;;;;;6308582;28;20031;-68
2021/05/29 10:56:58;;;;;;;25.60;8.15;;;22.10;50.90;;;;;;6334164;28;20016;-66
2021/05/29 11:00:00;;;;;;;21.35;7.53;;;22.10;50.90;;;;;;6328636;28;20017;-67
2021/05/29 11:03:27;;;;;;;19.73;8.05;;;22.10;51.00;;;;;;6331159;28;20024;-67
2021/05/29 11:06:30;;;;;;;18.30;6.70;;;22.00;50.90;;;;;;6295059;28;20094;-67
2021/05/29 11:09:32;;;;;;;23.30;7.78;;;22.10;51.00;;;;;;6304936;28;20115;-67
2021/05/29 11:12:49;;;;;;;18.80;7.22;;;22.10;51.00;;;;;;6319196;28;20056;-67
2021/05/29 11:15:59;;;;;;;18.73;7.00;;;22.00;51.00;;;;;;6338123;28;20027;-66
2021/05/29 11:19:14;;;;;;;21.52;7.10;;;22.00;51.00;;;;;;6322131;28;20603;-66
2021/05/29 11:22:16;;;;;;;19.73;6.77;;;22.00;51.00;;;;;;6338458;28;20028;-66
2021/05/29 11:25:20;;;;;;;19.48;6.85;;;22.10;53.90;;;;;;6328859;28;20031;-66
2021/05/29 11:28:22;;;;;;;19.92;5.82;;;22.30;54.40;;;;;;6330466;28;20063;-66
2021/05/29 11:31:23;;;;;;;402.20;22.15;;;22.40;53.80;;;;;;6329375;28;20023;-67
2021/05/29 11:34:23;;;;;;;266.13;17.65;;;22.30;51.90;;;;;;6322535;28;20054;-69
2021/05/29 11:37:24;;;;;;;141.30;11.93;;;22.20;51.60;;;;;;6339654;28;20023;-66
2021/05/29 11:41:03;;;;;;;83.38;10.00;;;22.20;51.50;;;;;;6324851;28;20028;-67
2021/05/29 11:44:06;;;;;;;219.10;13.82;;;22.20;55.10;;;;;;6321474;28;20030;-67
2021/05/29 11:47:17;;;;;;;140.32;14.50;;;22.30;51.70;;;;;;6341243;28;20469;-66
2021/05/29 11:50:17;;;;;;;153.13;13.48;;;22.20;51.90;;;;;;6311052;28;20692;-67
2021/05/29 11:53:24;;;;;;;110.03;10.50;;;22.20;51.60;;;;;;6311318;28;20040;-66
2021/05/29 11:56:33;;;;;;;84.20;10.20;;;22.20;51.60;;;;;;6323912;28;20024;-67
2021/05/29 11:59:34;;;;;;;65.03;9.02;;;22.20;51.50;;;;;;6315258;28;20085;-68
2021/05/29 12:02:35;;;;;;;42.70;8.88;;;22.20;51.60;;;;;;6341014;28;20035;-66
2021/05/29 12:05:39;;;;;;;52.25;9.20;;;22.20;51.60;;;;;;6327031;28;20031;-66
2021/05/29 12:08:56;;;;;;;73.77;8.80;;;22.10;51.50;;;;;;6324010;28;20031;-65
2021/05/29 12:12:12;;;;;;;33.28;6.82;;;22.10;51.50;;;;;;6340280;28;20031;-65
2021/05/29 12:15:12;;;;;;;28.40;7.78;;;22.10;51.60;;;;;;6321731;28;20020;-65
2021/05/29 12:18:13;;;;;;;33.22;7.65;;;22.20;52.00;;;;;;6317231;28;20032;-65
2021/05/29 12:21:15;;;;;;;36.55;8.50;;;22.20;51.90;;;;;;6326589;28;20090;-66
2021/05/29 12:24:16;;;;;;;23.40;7.40;;;22.10;51.80;;;;;;6315168;28;20079;-67
2021/05/29 12:27:28;;;;;;;29.40;7.60;;;22.10;51.80;;;;;;6312667;28;20324;-67
2021/05/29 12:30:29;;;;;;;26.50;7.47;;;22.10;51.70;;;;;;6331844;28;20019;-67
2021/05/29 12:33:29;;;;;;;29.48;6.47;;;22.10;51.70;;;;;;6318212;28;20042;-67
2021/05/29 12:36:30;;;;;;;26.40;6.53;;;22.10;51.70;;;;;;6341143;28;20023;-67
2021/05/29 12:39:51;;;;;;;22.75;5.97;;;22.20;51.60;;;;;;6340644;28;20111;-67
2021/05/29 12:42:54;;;;;;;26.00;6.10;;;22.20;51.60;;;;;;6307741;28;20017;-67
2021/05/29 12:45:55;;;;;;;22.25;6.07;;;22.20;51.50;;;;;;6313476;28;20021;-67
2021/05/29 12:49:12;;;;;;;23.90;5.60;;;22.20;51.50;;;;;;6314829;28;20035;-67
2021/05/29 12:52:26;;;;;;;15.05;5.22;;;22.20;51.50;;;;;;6312828;28;20048;-67
2021/05/29 12:55:27;;;;;;;11.05;4.45;;;22.20;51.50;;;;;;6316129;28;20031;-67
2021/05/29 12:58:27;;;;;;;13.90;5.20;;;22.20;51.50;;;;;;6325531;28;20428;-67
2021/05/29 13:01:41;;;;;;;13.50;4.35;;;22.20;51.40;;;;;;6326453;28;20024;-67
2021/05/29 13:08:45;;;;;;;17.95;4.97;;;22.20;51.40;;;;;;6289664;28;20059;-66
2021/05/29 13:11:46;;;;;;;21.05;4.80;;;22.20;51.50;;;;;;6285872;28;20056;-67
2021/05/29 13:14:47;;;;;;;15.30;4.63;;;22.20;51.50;;;;;;6293206;28;20031;-71
2021/05/29 13:17:48;;;;;;;14.20;5.05;;;22.20;51.40;;;;;;6314189;28;20016;-70
2021/05/29 13:21:01;;;;;;;12.07;4.53;;;22.20;51.50;;;;;;6313878;28;20119;-70
2021/05/29 13:24:04;;;;;;;10.43;3.97;;;22.20;52.20;;;;;;6312513;28;20028;-70
2021/05/29 13:27:06;;;;;;;10.48;3.72;;;22.30;51.40;;;;;;6324471;28;20051;-71
2021/05/29 13:30:23;;;;;;;13.30;3.72;;;22.30;51.40;;;;;;6318948;28;20032;-70
2021/05/29 13:33:23;;;;;;;13.23;3.63;;;22.30;51.50;;;;;;6319341;28;20344;-67
2021/05/29 13:36:24;;;;;;;17.08;4.38;;;22.30;51.50;;;;;;6314483;28;20024;-68
2021/05/29 13:39:25;;;;;;;13.30;3.90;;;22.30;51.50;;;;;;6329377;28;20023;-68
2021/05/29 13:42:30;;;;;;;13.30;3.80;;;22.20;51.40;;;;;;6315434;28;20503;-68
2021/05/29 13:45:35;;;;;;;10.23;3.67;;;22.30;51.50;;;;;;6307487;28;20070;-67
2021/05/29 13:48:45;;;;;;;14.00;4.03;;;22.30;51.50;;;;;;6330921;28;20028;-68
2021/05/29 13:51:47;;;;;;;8.40;3.47;;;22.20;51.40;;;;;;6309517;28;20047;-68
2021/05/29 13:54:47;;;;;;;10.00;3.67;;;22.20;51.40;;;;;;6293574;28;20020;-66
2021/05/29 13:57:48;;;;;;;11.63;3.60;;;22.20;51.40;;;;;;6301750;28;20416;-66
2021/05/29 14:00:49;;;;;;;9.52;3.20;;;22.20;51.40;;;;;;6316243;28;20024;-66
2021/05/29 14:03:49;;;;;;;12.80;3.72;;;22.20;51.40;;;;;;6334800;28;20062;-67
2021/05/29 14:06:51;;;;;;;8.52;3.40;;;22.20;51.40;;;;;;6343213;28;20026;-66
2021/05/29 14:09:51;;;;;;;11.65;3.13;;;22.20;51.40;;;;;;6346490;28;20023;-66
2021/05/29 14:12:52;;;;;;;8.93;3.53;;;22.20;51.40;;;;;;6345889;28;20350;-66
2021/05/29 14:15:52;;;;;;;5.95;2.97;;;22.20;51.40;;;;;;6331770;28;20016;-66
2021/05/29 14:18:55;;;;;;;5.93;3.22;;;22.20;51.30;;;;;;6320724;28;20023;-66
2021/05/29 14:21:57;;;;;;;7.35;3.42;;;22.20;51.40;;;;;;6321856;28;20039;-67
2021/05/29 14:24:58;;;;;;;8.50;3.15;;;22.20;51.30;;;;;;6344268;28;20404;-66
2021/05/29 14:27:58;;;;;;;5.68;2.70;;;22.20;51.30;;;;;;6340323;28;20038;-66
2021/05/29 14:31:01;;;;;;;10.73;2.90;;;22.20;51.30;;;;;;6321094;28;20452;-66
2021/05/29 14:34:04;;;;;;;6.05;2.40;;;22.20;51.30;;;;;;6320452;28;20051;-66
2021/05/29 14:37:04;;;;;;;5.78;2.95;;;22.20;51.30;;;;;;6320610;28;20024;-67
2021/05/29 14:40:05;;;;;;;6.90;2.47;;;22.20;51.30;;;;;;6319957;28;20016;-66
2021/05/29 14:43:06;;;;;;;7.45;2.47;;;22.20;51.30;;;;;;6324745;28;20632;-66
2021/05/29 14:46:07;;;;;;;7.22;2.50;;;22.20;51.30;;;;;;6345179;28;20036;-66
2021/05/29 14:49:08;;;;;;;5.10;2.70;;;22.20;51.30;;;;;;6345202;28;20512;-66
2021/05/29 14:52:08;;;;;;;4.55;2.17;;;22.20;51.40;;;;;;6342079;28;20513;-67
2021/05/29 14:55:09;;;;;;;6.55;2.70;;;22.20;51.40;;;;;;6317159;28;20039;-66
2021/05/29 14:58:10;;;;;;;5.78;2.70;;;22.20;51.40;;;;;;6323019;28;20035;-66
2021/05/29 15:01:11;;;;;;;5.50;2.22;;;22.20;51.40;;;;;;6345876;28;20055;-66
2021/05/29 15:04:15;;;;;;;5.53;2.30;;;22.20;51.40;;;;;;6344413;28;20028;-66
2021/05/29 15:07:15;;;;;;;4.30;1.98;;;22.20;51.40;;;;;;6345068;28;20069;-66
2021/05/29 15:10:16;;;;;;;5.18;2.22;;;22.10;51.30;;;;;;6325467;28;20508;-66
2021/05/29 15:13:17;;;;;;;5.32;2.30;;;22.10;51.30;;;;;;6318312;28;20036;-66
2021/05/29 15:16:18;;;;;;;4.72;2.30;;;22.10;51.40;;;;;;6342762;28;20098;-66
2021/05/29 15:19:18;;;;;;;3.92;1.92;;;22.10;51.30;;;;;;6342725;28;20026;-66
2021/05/29 15:22:20;;;;;;;3.58;1.90;;;22.10;51.40;;;;;;6344711;28;20106;-67
2021/05/29 15:25:25;;;;;;;4.18;1.80;;;22.10;51.30;;;;;;6344907;28;20115;-66
2021/05/29 15:28:26;;;;;;;;;;;22.10;51.40;;;;;;6344670;28;20020;-66
2021/05/29 15:31:27;;;;;;;3.95;1.80;;;22.10;51.30;;;;;;6344391;28;20314;-66
2021/05/29 15:34:28;;;;;;;3.17;1.92;;;22.10;51.40;;;;;;6342931;28;20111;-66
2021/05/29 15:37:29;;;;;;;3.53;1.73;;;22.10;51.40;;;;;;6344380;28;20022;-67
2021/05/29 15:40:29;;;;;;;3.20;1.95;;;22.10;51.30;;;;;;6329592;28;20504;-66
2021/05/29 15:43:31;;;;;;;4.15;2.15;;;22.10;51.40;;;;;;6318977;28;20403;-66
2021/05/29 15:46:32;;;;;;;4.60;1.80;;;22.10;51.40;;;;;;6339493;28;20111;-66
2021/05/29 15:49:32;;;;;;;3.13;1.63;;;22.10;51.40;;;;;;6340363;28;20499;-66
2021/05/29 15:52:33;;;;;;;3.10;1.70;;;22.10;51.40;;;;;;6311956;28;20051;-66
2021/05/29 15:55:33;;;;;;;6.10;1.73;;;22.10;51.40;;;;;;6316266;28;20073;-67
2021/05/29 15:58:35;;;;;;;2.92;1.60;;;22.10;51.40;;;;;;6342411;28;20011;-66
2021/05/29 16:01:35;;;;;;;3.22;1.50;;;22.10;51.40;;;;;;6341303;28;20020;-66
2021/05/29 16:04:36;;;;;;;3.75;1.92;;;22.10;51.40;;;;;;6342204;28;20122;-66